sensor_id;sensor_type;location;lat;lon;timestamp;pressure;altitude;pressure_sealevel;temperature;humidity
30875;BME280;17581;43.222;27.924;2023-01-10T00:00:24;100561.81;;;9.56;86.98
30875;BME280;17581;43.222;27.924;2023-01-10T00:02:50;100563.28;;;9.60;87.42
30875;BME280;17581;43.222;27.924;2023-01-10T00:05:16;100557.41;;;9.55;87.67
30875;BME280;17581;43.222;27.924;2023-01-10T00:07:41;100546.56;;;9.57;88.16
30875;BME280;17581;43.222;27.924;2023-01-10T00:10:07;100543.50;;;9.61;88.29
30875;BME280;17581;43.222;27.924;2023-01-10T00:12:33;100549.25;;;9.68;88.73
30875;BME280;17581;43.222;27.924;2023-01-10T00:15:17;100538.16;;;9.61;89.19
30875;BME280;17581;43.222;27.924;2023-01-10T00:17:43;100533.63;;;9.62;89.50
30875;BME280;17581;43.222;27.924;2023-01-10T00:20:09;100536.94;;;9.76;89.53
30875;BME280;17581;43.222;27.924;2023-01-10T00:22:34;100542.06;;;9.79;89.39
30875;BME280;17581;43.222;27.924;2023-01-10T00:25:00;100526.44;;;9.84;89.17
30875;BME280;17581;43.222;27.924;2023-01-10T00:27:25;100534.00;;;10.02;88.81
30875;BME280;17581;43.222;27.924;2023-01-10T00:29:51;100503.72;;;10.00;88.22
30875;BME280;17581;43.222;27.924;2023-01-10T00:32:18;100527.41;;;10.17;87.20
30875;BME280;17581;43.222;27.924;2023-01-10T00:34:43;100522.50;;;10.22;86.47
30875;BME280;17581;43.222;27.924;2023-01-10T00:37:09;100535.94;;;10.22;86.39
30875;BME280;17581;43.222;27.924;2023-01-10T00:39:34;100514.09;;;10.04;88.07
30875;BME280;17581;43.222;27.924;2023-01-10T00:42:00;100523.47;;;10.10;88.49
30875;BME280;17581;43.222;27.924;2023-01-10T00:44:43;100511.28;;;9.95;88.84
30875;BME280;17581;43.222;27.924;2023-01-10T00:47:11;100527.53;;;9.93;90.28
30875;BME280;17581;43.222;27.924;2023-01-10T00:49:37;100521.44;;;10.02;91.34
30875;BME280;17581;43.222;27.924;2023-01-10T00:52:03;100499.34;;;9.88;92.00
30875;BME280;17581;43.222;27.924;2023-01-10T00:54:28;100500.31;;;9.87;92.51
30875;BME280;17581;43.222;27.924;2023-01-10T00:56:53;100508.59;;;9.95;93.70
30875;BME280;17581;43.222;27.924;2023-01-10T00:59:19;100500.53;;;9.95;93.96
30875;BME280;17581;43.222;27.924;2023-01-10T01:01:45;100495.66;;;10.00;94.67
30875;BME280;17581;43.222;27.924;2023-01-10T01:04:10;100477.59;;;9.91;94.67
30875;BME280;17581;43.222;27.924;2023-01-10T01:06:35;100493.09;;;9.98;95.19
30875;BME280;17581;43.222;27.924;2023-01-10T01:09:01;100477.09;;;9.97;95.50
30875;BME280;17581;43.222;27.924;2023-01-10T01:11:26;100483.94;;;9.90;95.01
30875;BME280;17581;43.222;27.924;2023-01-10T01:13:52;100485.63;;;10.02;95.38
30875;BME280;17581;43.222;27.924;2023-01-10T01:16:17;100487.47;;;10.01;95.56
30875;BME280;17581;43.222;27.924;2023-01-10T01:18:43;100475.75;;;9.91;95.61
30875;BME280;17581;43.222;27.924;2023-01-10T01:21:08;100488.94;;;9.94;96.03
30875;BME280;17581;43.222;27.924;2023-01-10T01:23:34;100484.56;;;9.93;96.15
30875;BME280;17581;43.222;27.924;2023-01-10T01:26:00;100478.31;;;9.93;96.53
30875;BME280;17581;43.222;27.924;2023-01-10T01:28:26;100455.88;;;9.94;96.49
30875;BME280;17581;43.222;27.924;2023-01-10T01:30:51;100470.22;;;10.04;96.87
30875;BME280;17581;43.222;27.924;2023-01-10T01:33:17;100471.31;;;10.12;96.67
30875;BME280;17581;43.222;27.924;2023-01-10T01:35:44;100464.09;;;10.13;96.38
30875;BME280;17581;43.222;27.924;2023-01-10T01:38:10;100438.59;;;10.07;96.14
30875;BME280;17581;43.222;27.924;2023-01-10T01:40:36;100439.06;;;10.12;96.13
30875;BME280;17581;43.222;27.924;2023-01-10T01:43:04;100451.19;;;10.18;95.80
30875;BME280;17581;43.222;27.924;2023-01-10T01:45:35;100459.38;;;10.16;96.51
30875;BME280;17581;43.222;27.924;2023-01-10T01:53:24;100465.56;;;10.28;96.68
30875;BME280;17581;43.222;27.924;2023-01-10T01:55:53;100457.72;;;10.36;96.39
30875;BME280;17581;43.222;27.924;2023-01-10T01:58:50;100451.97;;;10.41;96.39
30875;BME280;17581;43.222;27.924;2023-01-10T02:01:15;100453.06;;;10.38;95.57
30875;BME280;17581;43.222;27.924;2023-01-10T02:03:42;100450.84;;;10.43;95.81
30875;BME280;17581;43.222;27.924;2023-01-10T02:06:10;100458.88;;;10.54;95.15
30875;BME280;17581;43.222;27.924;2023-01-10T02:08:39;100453.38;;;10.56;95.06
30875;BME280;17581;43.222;27.924;2023-01-10T02:11:09;100456.06;;;10.56;93.95
30875;BME280;17581;43.222;27.924;2023-01-10T02:13:40;100449.81;;;10.55;94.54
30875;BME280;17581;43.222;27.924;2023-01-10T02:16:07;100448.59;;;10.59;94.49
30875;BME280;17581;43.222;27.924;2023-01-10T02:18:34;100445.78;;;10.61;93.86
30875;BME280;17581;43.222;27.924;2023-01-10T02:23:59;100438.69;;;10.60;94.52
30875;BME280;17581;43.222;27.924;2023-01-10T02:27:00;100440.53;;;10.59;94.52
30875;BME280;17581;43.222;27.924;2023-01-10T02:29:59;100434.16;;;10.60;95.20
30875;BME280;17581;43.222;27.924;2023-01-10T02:37:58;100427.59;;;10.53;95.48
30875;BME280;17581;43.222;27.924;2023-01-10T02:40:38;100421.00;;;10.46;96.38
30875;BME280;17581;43.222;27.924;2023-01-10T02:43:08;100446.66;;;10.50;95.71
30875;BME280;17581;43.222;27.924;2023-01-10T02:45:46;100441.28;;;10.50;95.49
30875;BME280;17581;43.222;27.924;2023-01-10T02:48:15;100437.28;;;10.45;95.64
30875;BME280;17581;43.222;27.924;2023-01-10T02:53:31;100432.63;;;10.47;95.39
30875;BME280;17581;43.222;27.924;2023-01-10T03:04:43;100424.91;;;10.53;94.79
30875;BME280;17581;43.222;27.924;2023-01-10T03:07:27;100428.03;;;10.58;94.36
30875;BME280;17581;43.222;27.924;2023-01-10T03:13:18;100430.63;;;10.60;94.78
30875;BME280;17581;43.222;27.924;2023-01-10T03:15:47;100425.63;;;10.55;94.83
30875;BME280;17581;43.222;27.924;2023-01-10T03:18:18;100423.19;;;10.52;94.58
30875;BME280;17581;43.222;27.924;2023-01-10T03:20:46;100415.72;;;10.56;94.89
30875;BME280;17581;43.222;27.924;2023-01-10T03:23:14;100412.75;;;10.59;94.90
30875;BME280;17581;43.222;27.924;2023-01-10T03:25:42;100420.47;;;10.63;95.00
30875;BME280;17581;43.222;27.924;2023-01-10T03:30:41;100407.66;;;10.76;93.96
30875;BME280;17581;43.222;27.924;2023-01-10T03:33:09;100416.97;;;10.72;94.06
30875;BME280;17581;43.222;27.924;2023-01-10T03:38:20;100419.59;;;10.83;94.19
30875;BME280;17581;43.222;27.924;2023-01-10T03:40:56;100408.13;;;10.81;94.05
30875;BME280;17581;43.222;27.924;2023-01-10T03:43:40;100416.84;;;10.74;93.11
30875;BME280;17581;43.222;27.924;2023-01-10T03:46:34;100406.59;;;10.68;93.42
30875;BME280;17581;43.222;27.924;2023-01-10T03:49:03;100402.78;;;10.70;93.13
30875;BME280;17581;43.222;27.924;2023-01-10T03:51:31;100395.41;;;10.63;92.68
30875;BME280;17581;43.222;27.924;2023-01-10T03:54:00;100403.91;;;10.68;92.43
30875;BME280;17581;43.222;27.924;2023-01-10T03:56:26;100396.38;;;10.62;92.68
30875;BME280;17581;43.222;27.924;2023-01-10T03:58:52;100382.06;;;10.61;92.09
30875;BME280;17581;43.222;27.924;2023-01-10T04:01:17;100401.56;;;10.74;92.57
30875;BME280;17581;43.222;27.924;2023-01-10T04:03:43;100398.41;;;10.69;92.45
30875;BME280;17581;43.222;27.924;2023-01-10T04:06:09;100396.97;;;10.65;92.21
30875;BME280;17581;43.222;27.924;2023-01-10T04:08:34;100389.34;;;10.70;92.62
30875;BME280;17581;43.222;27.924;2023-01-10T04:11:00;100373.34;;;10.69;92.54
30875;BME280;17581;43.222;27.924;2023-01-10T04:13:26;100381.50;;;10.78;92.77
30875;BME280;17581;43.222;27.924;2023-01-10T04:15:51;100382.63;;;10.76;93.04
30875;BME280;17581;43.222;27.924;2023-01-10T04:18:16;100364.69;;;10.65;93.17
30875;BME280;17581;43.222;27.924;2023-01-10T04:20:43;100374.13;;;10.80;93.72
30875;BME280;17581;43.222;27.924;2023-01-10T04:23:09;100375.44;;;10.86;93.63
30875;BME280;17581;43.222;27.924;2023-01-10T04:25:34;100359.72;;;10.81;93.21
30875;BME280;17581;43.222;27.924;2023-01-10T04:28:00;100366.22;;;10.79;93.40
30875;BME280;17581;43.222;27.924;2023-01-10T04:30:25;100362.94;;;10.75;93.47
30875;BME280;17581;43.222;27.924;2023-01-10T04:32:51;100370.13;;;10.75;93.75
30875;BME280;17581;43.222;27.924;2023-01-10T04:35:17;100363.72;;;10.66;94.54
30875;BME280;17581;43.222;27.924;2023-01-10T04:37:42;100372.75;;;10.65;94.90
30875;BME280;17581;43.222;27.924;2023-01-10T04:40:08;100367.81;;;10.70;95.41
30875;BME280;17581;43.222;27.924;2023-01-10T04:42:34;100367.56;;;10.73;95.49
30875;BME280;17581;43.222;27.924;2023-01-10T04:44:59;100363.63;;;10.77;95.72
30875;BME280;17581;43.222;27.924;2023-01-10T04:47:24;100360.81;;;10.79;95.67
30875;BME280;17581;43.222;27.924;2023-01-10T04:49:50;100369.00;;;10.77;94.83
30875;BME280;17581;43.222;27.924;2023-01-10T04:52:15;100364.50;;;10.78;94.97
30875;BME280;17581;43.222;27.924;2023-01-10T04:54:41;100364.34;;;10.79;94.62
30875;BME280;17581;43.222;27.924;2023-01-10T04:57:06;100349.75;;;10.72;94.03
30875;BME280;17581;43.222;27.924;2023-01-10T04:59:32;100349.16;;;10.69;94.53
30875;BME280;17581;43.222;27.924;2023-01-10T05:01:57;100337.22;;;10.62;93.90
30875;BME280;17581;43.222;27.924;2023-01-10T05:04:23;100363.03;;;10.74;93.29
30875;BME280;17581;43.222;27.924;2023-01-10T05:06:49;100353.22;;;10.63;92.84
30875;BME280;17581;43.222;27.924;2023-01-10T05:09:14;100366.59;;;10.74;92.24
30875;BME280;17581;43.222;27.924;2023-01-10T05:11:40;100368.34;;;10.64;91.42
30875;BME280;17581;43.222;27.924;2023-01-10T05:14:05;100354.91;;;10.64;90.60
30875;BME280;17581;43.222;27.924;2023-01-10T05:16:31;100355.13;;;10.72;89.47
30875;BME280;17581;43.222;27.924;2023-01-10T05:18:56;100358.06;;;10.69;88.51
30875;BME280;17581;43.222;27.924;2023-01-10T05:21:22;100362.59;;;10.69;88.63
30875;BME280;17581;43.222;27.924;2023-01-10T05:23:47;100370.72;;;10.78;88.19
30875;BME280;17581;43.222;27.924;2023-01-10T05:26:16;100372.75;;;10.86;87.82
30875;BME280;17581;43.222;27.924;2023-01-10T05:28:42;100368.53;;;10.93;88.30
30875;BME280;17581;43.222;27.924;2023-01-10T05:31:14;100387.13;;;10.96;87.43
30875;BME280;17581;43.222;27.924;2023-01-10T05:33:45;100373.53;;;10.98;87.18
30875;BME280;17581;43.222;27.924;2023-01-10T05:36:10;100374.84;;;11.03;87.18
30875;BME280;17581;43.222;27.924;2023-01-10T05:38:36;100369.63;;;11.11;86.61
30875;BME280;17581;43.222;27.924;2023-01-10T05:41:01;100360.34;;;11.25;86.27
30875;BME280;17581;43.222;27.924;2023-01-10T05:43:27;100378.66;;;11.31;85.68
30875;BME280;17581;43.222;27.924;2023-01-10T05:45:53;100389.59;;;11.39;84.68
30875;BME280;17581;43.222;27.924;2023-01-10T05:48:19;100374.94;;;11.32;83.82
30875;BME280;17581;43.222;27.924;2023-01-10T05:50:44;100386.78;;;11.40;83.32
30875;BME280;17581;43.222;27.924;2023-01-10T05:53:10;100375.97;;;11.31;82.91
30875;BME280;17581;43.222;27.924;2023-01-10T05:55:35;100387.44;;;11.33;82.50
30875;BME280;17581;43.222;27.924;2023-01-10T05:58:01;100389.69;;;11.28;82.89
30875;BME280;17581;43.222;27.924;2023-01-10T06:00:27;100385.56;;;11.24;82.92
30875;BME280;17581;43.222;27.924;2023-01-10T06:02:56;100382.06;;;11.33;82.61
30875;BME280;17581;43.222;27.924;2023-01-10T06:05:22;100393.22;;;11.28;82.60
30875;BME280;17581;43.222;27.924;2023-01-10T06:07:48;100367.53;;;11.15;82.15
30875;BME280;17581;43.222;27.924;2023-01-10T06:10:14;100378.56;;;11.12;82.32
30875;BME280;17581;43.222;27.924;2023-01-10T06:12:40;100378.56;;;11.12;82.23
30875;BME280;17581;43.222;27.924;2023-01-10T06:15:06;100380.28;;;11.13;82.41
30875;BME280;17581;43.222;27.924;2023-01-10T06:17:32;100380.44;;;11.21;81.73
30875;BME280;17581;43.222;27.924;2023-01-10T06:19:58;100389.06;;;11.15;81.65
30875;BME280;17581;43.222;27.924;2023-01-10T06:22:23;100389.53;;;11.29;81.39
30875;BME280;17581;43.222;27.924;2023-01-10T06:24:50;100375.31;;;11.18;80.57
30875;BME280;17581;43.222;27.924;2023-01-10T06:27:15;100396.66;;;11.30;80.78
30875;BME280;17581;43.222;27.924;2023-01-10T06:29:41;100376.34;;;11.26;80.15
30875;BME280;17581;43.222;27.924;2023-01-10T06:32:06;100385.34;;;11.36;79.36
30875;BME280;17581;43.222;27.924;2023-01-10T06:34:32;100384.91;;;11.41;78.81
30875;BME280;17581;43.222;27.924;2023-01-10T06:36:58;100391.41;;;11.38;79.50
30875;BME280;17581;43.222;27.924;2023-01-10T06:39:23;100398.47;;;11.30;79.56
30875;BME280;17581;43.222;27.924;2023-01-10T06:41:48;100394.44;;;11.15;78.81
30875;BME280;17581;43.222;27.924;2023-01-10T06:44:14;100409.34;;;11.19;79.24
30875;BME280;17581;43.222;27.924;2023-01-10T06:46:39;100408.88;;;11.14;79.48
30875;BME280;17581;43.222;27.924;2023-01-10T06:49:05;100407.47;;;11.10;79.70
30875;BME280;17581;43.222;27.924;2023-01-10T06:51:30;100389.53;;;10.99;80.04
30875;BME280;17581;43.222;27.924;2023-01-10T06:53:56;100400.03;;;11.02;80.10
30875;BME280;17581;43.222;27.924;2023-01-10T06:56:21;100396.47;;;11.02;81.22
30875;BME280;17581;43.222;27.924;2023-01-10T06:58:47;100395.50;;;11.03;81.40
30875;BME280;17581;43.222;27.924;2023-01-10T07:01:16;100404.28;;;11.05;81.45
30875;BME280;17581;43.222;27.924;2023-01-10T07:03:42;100417.91;;;11.03;82.88
30875;BME280;17581;43.222;27.924;2023-01-10T07:06:07;100418.59;;;11.05;83.57
30875;BME280;17581;43.222;27.924;2023-01-10T07:08:38;100415.91;;;11.05;83.70
30875;BME280;17581;43.222;27.924;2023-01-10T07:11:05;100422.88;;;11.08;83.64
30875;BME280;17581;43.222;27.924;2023-01-10T07:13:30;100422.59;;;11.11;84.16
30875;BME280;17581;43.222;27.924;2023-01-10T07:16:07;100431.16;;;11.16;84.52
30875;BME280;17581;43.222;27.924;2023-01-10T07:18:34;100422.34;;;11.14;84.37
30875;BME280;17581;43.222;27.924;2023-01-10T07:21:00;100426.28;;;11.10;83.79
30875;BME280;17581;43.222;27.924;2023-01-10T07:23:25;100415.31;;;11.02;83.94
30875;BME280;17581;43.222;27.924;2023-01-10T07:25:51;100425.81;;;11.05;84.35
30875;BME280;17581;43.222;27.924;2023-01-10T07:28:17;100415.06;;;11.05;83.78
30875;BME280;17581;43.222;27.924;2023-01-10T07:30:43;100411.66;;;11.03;84.19
30875;BME280;17581;43.222;27.924;2023-01-10T07:33:08;100414.53;;;11.11;83.75
30875;BME280;17581;43.222;27.924;2023-01-10T07:35:34;100412.50;;;11.03;84.26
30875;BME280;17581;43.222;27.924;2023-01-10T07:38:00;100390.06;;;10.93;84.01
30875;BME280;17581;43.222;27.924;2023-01-10T07:40:27;100414.78;;;11.08;84.53
30875;BME280;17581;43.222;27.924;2023-01-10T07:42:59;100417.53;;;11.17;84.66
30875;BME280;17581;43.222;27.924;2023-01-10T07:45:26;100415.44;;;11.21;84.99
30875;BME280;17581;43.222;27.924;2023-01-10T07:47:55;100399.03;;;11.24;84.31
30875;BME280;17581;43.222;27.924;2023-01-10T07:50:21;100400.72;;;11.25;84.20
30875;BME280;17581;43.222;27.924;2023-01-10T07:52:46;100384.59;;;11.25;84.65
30875;BME280;17581;43.222;27.924;2023-01-10T07:55:12;100403.91;;;11.39;83.59
30875;BME280;17581;43.222;27.924;2023-01-10T07:57:37;100377.38;;;11.35;83.64
30875;BME280;17581;43.222;27.924;2023-01-10T08:00:03;100394.00;;;11.40;84.26
30875;BME280;17581;43.222;27.924;2023-01-10T08:02:28;100394.56;;;11.43;83.58
30875;BME280;17581;43.222;27.924;2023-01-10T08:04:53;100389.59;;;11.39;83.80
30875;BME280;17581;43.222;27.924;2023-01-10T08:07:19;100399.97;;;11.43;82.58
30875;BME280;17581;43.222;27.924;2023-01-10T08:09:44;100386.06;;;11.48;81.09
30875;BME280;17581;43.222;27.924;2023-01-10T08:12:10;100380.16;;;11.54;80.71
30875;BME280;17581;43.222;27.924;2023-01-10T08:14:35;100385.53;;;11.54;79.77
30875;BME280;17581;43.222;27.924;2023-01-10T08:17:01;100365.34;;;11.39;79.36
30875;BME280;17581;43.222;27.924;2023-01-10T08:19:26;100375.31;;;11.48;79.54
30875;BME280;17581;43.222;27.924;2023-01-10T08:21:53;100374.75;;;11.54;79.08
30875;BME280;17581;43.222;27.924;2023-01-10T08:24:19;100392.34;;;11.58;79.02
30875;BME280;17581;43.222;27.924;2023-01-10T08:26:44;100377.03;;;11.49;79.06
30875;BME280;17581;43.222;27.924;2023-01-10T08:29:09;100390.75;;;11.46;79.58
30875;BME280;17581;43.222;27.924;2023-01-10T08:31:35;100398.03;;;11.55;80.11
30875;BME280;17581;43.222;27.924;2023-01-10T08:34:00;100385.53;;;11.54;80.95
30875;BME280;17581;43.222;27.924;2023-01-10T08:36:26;100373.16;;;11.42;81.58
30875;BME280;17581;43.222;27.924;2023-01-10T08:38:56;100390.06;;;11.54;81.44
30875;BME280;17581;43.222;27.924;2023-01-10T08:41:21;100376.75;;;11.52;81.06
30875;BME280;17581;43.222;27.924;2023-01-10T08:43:50;100386.97;;;11.58;80.50
30875;BME280;17581;43.222;27.924;2023-01-10T08:46:16;100385.13;;;11.68;80.14
30875;BME280;17581;43.222;27.924;2023-01-10T08:48:44;100374.06;;;11.52;79.62
30875;BME280;17581;43.222;27.924;2023-01-10T08:51:09;100368.81;;;11.60;80.01
30875;BME280;17581;43.222;27.924;2023-01-10T08:53:35;100385.28;;;11.67;78.48
30875;BME280;17581;43.222;27.924;2023-01-10T08:56:02;100379.31;;;11.63;79.03
30875;BME280;17581;43.222;27.924;2023-01-10T08:58:28;100382.59;;;11.67;79.25
30875;BME280;17581;43.222;27.924;2023-01-10T09:00:53;100361.44;;;11.62;78.74
30875;BME280;17581;43.222;27.924;2023-01-10T09:03:19;100362.09;;;11.75;78.93
30875;BME280;17581;43.222;27.924;2023-01-10T09:05:44;100367.09;;;11.89;78.40
30875;BME280;17581;43.222;27.924;2023-01-10T09:08:10;100362.81;;;11.87;78.27
30875;BME280;17581;43.222;27.924;2023-01-10T09:10:36;100374.19;;;12.00;78.63
30875;BME280;17581;43.222;27.924;2023-01-10T09:13:02;100388.53;;;12.20;78.38
30875;BME280;17581;43.222;27.924;2023-01-10T09:15:35;100385.84;;;12.20;78.62
30875;BME280;17581;43.222;27.924;2023-01-10T09:18:02;100390.97;;;12.23;79.18
30875;BME280;17581;43.222;27.924;2023-01-10T09:20:33;100359.59;;;12.22;78.76
30875;BME280;17581;43.222;27.924;2023-01-10T09:23:07;100389.97;;;12.43;79.55
30875;BME280;17581;43.222;27.924;2023-01-10T09:25:33;100377.91;;;12.57;79.55
30875;BME280;17581;43.222;27.924;2023-01-10T09:28:01;100374.06;;;12.59;78.86
30875;BME280;17581;43.222;27.924;2023-01-10T09:30:28;100378.28;;;12.71;78.57
30875;BME280;17581;43.222;27.924;2023-01-10T09:32:54;100382.09;;;12.78;77.87
30875;BME280;17581;43.222;27.924;2023-01-10T09:35:21;100370.59;;;12.76;77.85
30875;BME280;17581;43.222;27.924;2023-01-10T09:37:47;100372.03;;;12.80;77.63
30875;BME280;17581;43.222;27.924;2023-01-10T09:40:15;100377.41;;;12.90;77.21
30875;BME280;17581;43.222;27.924;2023-01-10T09:42:45;100363.44;;;13.04;76.06
30875;BME280;17581;43.222;27.924;2023-01-10T09:45:15;100360.34;;;12.99;75.56
30875;BME280;17581;43.222;27.924;2023-01-10T09:47:57;100363.16;;;12.97;75.61
30875;BME280;17581;43.222;27.924;2023-01-10T09:50:42;100345.00;;;12.90;75.19
30875;BME280;17581;43.222;27.924;2023-01-10T09:53:20;100336.22;;;12.78;75.53
30875;BME280;17581;43.222;27.924;2023-01-10T09:55:55;100332.47;;;12.98;74.47
30875;BME280;17581;43.222;27.924;2023-01-10T09:58:26;100336.16;;;12.97;74.67
30875;BME280;17581;43.222;27.924;2023-01-10T10:00:56;100342.97;;;13.01;74.36
30875;BME280;17581;43.222;27.924;2023-01-10T10:06:02;100315.34;;;13.27;73.71
30875;BME280;17581;43.222;27.924;2023-01-10T10:08:28;100297.69;;;13.32;73.50
30875;BME280;17581;43.222;27.924;2023-01-10T10:13:51;100324.00;;;13.57;72.87
30875;BME280;17581;43.222;27.924;2023-01-10T10:27:28;100299.84;;;13.29;72.34
30875;BME280;17581;43.222;27.924;2023-01-10T10:32:44;100302.31;;;13.13;73.26
30875;BME280;17581;43.222;27.924;2023-01-10T10:37:44;100311.16;;;13.15;73.21
30875;BME280;17581;43.222;27.924;2023-01-10T10:42:41;100285.00;;;13.05;73.08
30875;BME280;17581;43.222;27.924;2023-01-10T10:45:40;100291.81;;;13.09;73.04
30875;BME280;17581;43.222;27.924;2023-01-10T10:48:12;100291.63;;;12.84;72.79
30875;BME280;17581;43.222;27.924;2023-01-10T10:50:48;100297.25;;;12.90;73.02
30875;BME280;17581;43.222;27.924;2023-01-10T10:53:14;100291.34;;;12.77;73.63
30875;BME280;17581;43.222;27.924;2023-01-10T10:55:40;100295.03;;;12.76;73.75
30875;BME280;17581;43.222;27.924;2023-01-10T10:58:06;100278.84;;;12.76;73.59
30875;BME280;17581;43.222;27.924;2023-01-10T11:00:33;100293.56;;;12.91;73.24
30875;BME280;17581;43.222;27.924;2023-01-10T11:05:58;100290.53;;;13.14;72.75
30875;BME280;17581;43.222;27.924;2023-01-10T11:08:25;100286.47;;;13.27;72.03
30875;BME280;17581;43.222;27.924;2023-01-10T11:10:55;100286.72;;;13.34;71.15
30875;BME280;17581;43.222;27.924;2023-01-10T11:16:00;100259.63;;;13.26;70.75
30875;BME280;17581;43.222;27.924;2023-01-10T11:18:28;100255.94;;;13.27;70.93
30875;BME280;17581;43.222;27.924;2023-01-10T11:21:05;100258.56;;;13.36;71.01
30875;BME280;17581;43.222;27.924;2023-01-10T11:23:40;100273.31;;;13.42;70.72
30875;BME280;17581;43.222;27.924;2023-01-10T11:26:24;100259.31;;;13.29;70.23
30875;BME280;17581;43.222;27.924;2023-01-10T11:29:06;100264.38;;;13.14;70.37
30875;BME280;17581;43.222;27.924;2023-01-10T11:31:33;100243.13;;;12.92;70.77
30875;BME280;17581;43.222;27.924;2023-01-10T11:34:04;100254.31;;;12.97;71.10
30875;BME280;17581;43.222;27.924;2023-01-10T11:36:54;100231.66;;;12.90;70.84
30875;BME280;17581;43.222;27.924;2023-01-10T11:39:20;100252.09;;;12.92;70.71
30875;BME280;17581;43.222;27.924;2023-01-10T11:41:46;100246.41;;;12.95;70.85
30875;BME280;17581;43.222;27.924;2023-01-10T11:44:28;100246.81;;;12.91;71.15
30875;BME280;17581;43.222;27.924;2023-01-10T11:47:03;100249.63;;;12.72;71.20
30875;BME280;17581;43.222;27.924;2023-01-10T11:49:38;100246.97;;;12.62;71.59
30875;BME280;17581;43.222;27.924;2023-01-10T11:54:48;100245.44;;;12.50;72.82
30875;BME280;17581;43.222;27.924;2023-01-10T11:57:20;100248.81;;;12.62;72.61
30875;BME280;17581;43.222;27.924;2023-01-10T12:00:00;100238.16;;;12.60;72.48
30875;BME280;17581;43.222;27.924;2023-01-10T12:02:39;100245.34;;;12.69;72.42
30875;BME280;17581;43.222;27.924;2023-01-10T12:05:09;100256.00;;;12.71;71.48
30875;BME280;17581;43.222;27.924;2023-01-10T12:07:55;100253.56;;;12.77;72.15
30875;BME280;17581;43.222;27.924;2023-01-10T12:10:22;100252.84;;;12.75;71.38
30875;BME280;17581;43.222;27.924;2023-01-10T12:13:14;100234.38;;;12.80;71.21
30875;BME280;17581;43.222;27.924;2023-01-10T12:15:38;100250.03;;;13.04;70.30
30875;BME280;17581;43.222;27.924;2023-01-10T12:18:05;100250.03;;;13.04;69.68
30875;BME280;17581;43.222;27.924;2023-01-10T12:20:35;100226.97;;;13.19;69.45
30875;BME280;17581;43.222;27.924;2023-01-10T12:23:17;100238.75;;;13.45;69.01
30875;BME280;17581;43.222;27.924;2023-01-10T12:25:44;100224.41;;;13.45;68.41
30875;BME280;17581;43.222;27.924;2023-01-10T12:28:30;100238.34;;;13.58;68.04
30875;BME280;17581;43.222;27.924;2023-01-10T12:30:58;100217.41;;;13.42;67.72
30875;BME280;17581;43.222;27.924;2023-01-10T12:33:27;100216.66;;;13.50;67.70
30875;BME280;17581;43.222;27.924;2023-01-10T12:36:01;100214.81;;;13.33;67.52
30875;BME280;17581;43.222;27.924;2023-01-10T12:38:42;100213.19;;;13.40;67.07
30875;BME280;17581;43.222;27.924;2023-01-10T12:44:45;100206.41;;;13.36;67.18
30875;BME280;17581;43.222;27.924;2023-01-10T12:47:21;100227.16;;;13.35;67.17
30875;BME280;17581;43.222;27.924;2023-01-10T12:49:57;100224.34;;;13.27;67.47
30875;BME280;17581;43.222;27.924;2023-01-10T12:52:41;100217.81;;;13.30;67.02
30875;BME280;17581;43.222;27.924;2023-01-10T12:55:20;100216.34;;;13.35;66.85
30875;BME280;17581;43.222;27.924;2023-01-10T12:57:49;100195.59;;;13.36;66.35
30875;BME280;17581;43.222;27.924;2023-01-10T13:00:22;100208.88;;;13.47;66.00
30875;BME280;17581;43.222;27.924;2023-01-10T13:02:54;100205.31;;;13.29;66.06
30875;BME280;17581;43.222;27.924;2023-01-10T13:05:24;100210.47;;;13.22;66.57
30875;BME280;17581;43.222;27.924;2023-01-10T13:07:54;100203.53;;;13.20;66.88
30875;BME280;17581;43.222;27.924;2023-01-10T13:10:22;100205.69;;;13.34;66.89
30875;BME280;17581;43.222;27.924;2023-01-10T13:13:20;100210.78;;;13.37;66.99
30875;BME280;17581;43.222;27.924;2023-01-10T13:16:00;100217.41;;;13.42;66.57
30875;BME280;17581;43.222;27.924;2023-01-10T13:18:29;100209.22;;;13.17;66.85
30875;BME280;17581;43.222;27.924;2023-01-10T13:21:07;100212.66;;;13.09;67.66
30875;BME280;17581;43.222;27.924;2023-01-10T13:23:52;100211.38;;;13.03;67.81
30875;BME280;17581;43.222;27.924;2023-01-10T13:26:18;100217.34;;;13.07;67.93
30875;BME280;17581;43.222;27.924;2023-01-10T13:28:56;100213.78;;;13.06;68.04
30875;BME280;17581;43.222;27.924;2023-01-10T13:31:32;100214.00;;;12.95;67.85
30875;BME280;17581;43.222;27.924;2023-01-10T13:34:04;100231.09;;;12.86;68.21
30875;BME280;17581;43.222;27.924;2023-01-10T13:37:12;100224.22;;;12.65;69.24
30875;BME280;17581;43.222;27.924;2023-01-10T13:39:53;100224.59;;;12.79;69.60
30875;BME280;17581;43.222;27.924;2023-01-10T13:52:52;100230.34;;;12.57;69.40
30875;BME280;17581;43.222;27.924;2023-01-10T13:55:27;100224.34;;;12.63;68.95
30875;BME280;17581;43.222;27.924;2023-01-10T13:57:58;100231.38;;;12.56;69.08
30875;BME280;17581;43.222;27.924;2023-01-10T14:00:40;100244.97;;;12.54;69.71
30875;BME280;17581;43.222;27.924;2023-01-10T14:14:18;100262.63;;;12.30;73.13
30875;BME280;17581;43.222;27.924;2023-01-10T14:19:41;100277.00;;;12.21;74.40
30875;BME280;17581;43.222;27.924;2023-01-10T14:22:22;100286.09;;;12.00;74.46
30875;BME280;17581;43.222;27.924;2023-01-10T14:24:50;100279.00;;;11.99;74.91